createdAt,value
2019-05-02T00:01:55.034Z,11.90
2019-05-02T00:05:00.940Z,11.80
2019-05-02T00:08:05.435Z,11.80
2019-05-02T00:11:11.528Z,11.80
2019-05-02T00:14:15.893Z,11.80
2019-05-02T00:17:25.565Z,11.80
2019-05-02T00:20:27.196Z,11.80
2019-05-02T00:23:31.582Z,11.70
2019-05-02T00:26:35.988Z,11.60
2019-05-02T00:29:40.571Z,11.60
2019-05-02T00:32:44.904Z,11.60
2019-05-02T00:35:49.416Z,11.60
2019-05-02T00:38:53.794Z,11.60
2019-05-02T00:42:11.803Z,11.50
2019-05-02T00:45:04.573Z,11.50
2019-05-02T00:48:23.263Z,11.40
2019-05-02T00:51:28.063Z,11.40
2019-05-02T00:54:32.578Z,11.40
2019-05-02T00:57:36.882Z,11.40
2019-05-02T01:00:57.636Z,11.30
2019-05-02T01:04:06.325Z,11.30
2019-05-02T01:07:11.046Z,11.20
2019-05-02T01:10:17.295Z,11.20
2019-05-02T01:13:21.573Z,11.20
2019-05-02T01:16:25.930Z,11.10
2019-05-02T01:19:30.322Z,11.10
2019-05-02T01:22:34.619Z,11.10
2019-05-02T01:25:39.079Z,11.10
2019-05-02T01:29:08.193Z,11.10
2019-05-02T01:32:31.528Z,11.00
2019-05-02T01:36:06.520Z,11.00
2019-05-02T01:39:11.916Z,11.00
2019-05-02T01:42:16.240Z,11.00
2019-05-02T01:45:20.662Z,11.00
2019-05-02T01:48:24.956Z,11.10
2019-05-02T01:51:29.316Z,11.10
2019-05-02T01:54:33.519Z,11.10
2019-05-02T01:57:39.930Z,11.10
2019-05-02T02:00:44.766Z,11.10
2019-05-02T02:03:49.987Z,11.10
2019-05-02T02:06:54.278Z,11.10
2019-05-02T02:09:58.695Z,11.00
2019-05-02T02:13:05.082Z,11.00
2019-05-02T02:16:09.375Z,11.10
2019-05-02T02:19:28.224Z,11.00
2019-05-02T02:23:00.675Z,11.00
2019-05-02T02:26:12.194Z,11.00
2019-05-02T02:29:14.182Z,11.10
2019-05-02T02:32:20.120Z,11.10
2019-05-02T02:35:24.582Z,11.10
2019-05-02T02:38:33.701Z,11.10
2019-05-02T02:41:34.948Z,11.10
2019-05-02T02:44:56.177Z,11.00
2019-05-02T02:48:02.563Z,11.00
2019-05-02T02:51:06.611Z,11.00
2019-05-02T02:54:11.004Z,11.00
2019-05-02T02:57:25.689Z,11.00
2019-05-02T03:00:21.670Z,11.00
2019-05-02T03:03:27.768Z,11.00
2019-05-02T03:06:32.327Z,11.00
2019-05-02T03:09:36.660Z,11.00
2019-05-02T03:13:00.071Z,11.00
2019-05-02T03:16:07.101Z,11.00
2019-05-02T03:19:14.650Z,11.00
2019-05-02T03:22:18.424Z,11.00
2019-05-02T03:25:26.912Z,11.00
2019-05-02T03:28:28.826Z,11.00
2019-05-02T03:31:33.470Z,11.00
2019-05-02T03:34:47.163Z,10.90
2019-05-02T03:37:44.723Z,10.90
2019-05-02T03:40:50.312Z,10.90
2019-05-02T03:44:09.737Z,10.90
2019-05-02T03:47:04.652Z,10.90
2019-05-02T03:50:09.216Z,10.90
2019-05-02T03:53:17.504Z,10.90
2019-05-02T03:56:19.764Z,10.90
2019-05-02T03:59:37.092Z,10.80
2019-05-02T04:02:30.895Z,10.80
2019-05-02T04:05:40.563Z,10.80
2019-05-02T04:08:43.085Z,10.70
2019-05-02T04:11:48.265Z,10.80
2019-05-02T04:14:55.448Z,10.70
2019-05-02T04:17:59.127Z,10.70
2019-05-02T04:21:03.555Z,10.70
2019-05-02T04:24:13.307Z,10.70
2019-05-02T04:27:14.158Z,10.80
2019-05-02T04:30:18.438Z,10.80
2019-05-02T04:33:29.128Z,10.80
2019-05-02T04:36:29.568Z,10.80
2019-05-02T04:39:33.963Z,10.80
2019-05-02T04:42:39.334Z,10.80
2019-05-02T04:45:52.839Z,10.80
2019-05-02T04:48:52.842Z,10.80
2019-05-02T04:52:04.463Z,10.80
2019-05-02T04:55:14.511Z,10.80
2019-05-02T04:58:08.482Z,10.80
2019-05-02T05:01:13.066Z,10.80
2019-05-02T05:04:18.019Z,10.80
2019-05-02T05:07:22.620Z,10.80
2019-05-02T05:10:27.716Z,10.80
2019-05-02T05:13:32.246Z,10.80
2019-05-02T05:16:37.317Z,10.80
2019-05-02T05:19:42.716Z,10.90
2019-05-02T05:22:47.873Z,10.90
2019-05-02T05:26:03.534Z,11.00
2019-05-02T05:29:04.249Z,11.00
2019-05-02T05:32:10.143Z,11.10
2019-05-02T05:35:14.820Z,11.10
2019-05-02T05:38:23.086Z,11.10
2019-05-02T05:41:27.565Z,11.20
2019-05-02T05:44:32.852Z,11.10
2019-05-02T05:47:37.855Z,11.20
2019-05-02T05:50:42.521Z,11.30
2019-05-02T05:53:47.889Z,11.40
2019-05-02T05:56:53.402Z,11.40
2019-05-02T05:59:58.499Z,11.50
2019-05-02T06:03:11.534Z,11.60
2019-05-02T06:06:10.276Z,11.60
2019-05-02T06:09:16.135Z,11.70
2019-05-02T06:12:20.648Z,11.80
2019-05-02T06:15:25.197Z,11.80
2019-05-02T06:18:29.893Z,11.90
2019-05-02T06:21:34.407Z,12.00
2019-05-02T06:24:38.859Z,12.10
2019-05-02T06:27:43.255Z,12.10
2019-05-02T06:30:47.769Z,12.20
2019-05-02T06:33:52.482Z,12.30
2019-05-02T06:36:58.423Z,12.40
2019-05-02T06:40:03.179Z,12.50
2019-05-02T06:43:09.855Z,12.50
2019-05-02T06:46:16.546Z,12.60
2019-05-02T06:49:24.879Z,12.70
2019-05-02T06:52:32.844Z,12.70
2019-05-02T06:55:36.515Z,12.80
2019-05-02T06:58:43.219Z,12.90
2019-05-02T07:01:52.249Z,12.90
2019-05-02T07:04:54.954Z,13.00
2019-05-02T07:08:00.399Z,13.10
2019-05-02T07:11:05.417Z,13.10
2019-05-02T07:14:13.347Z,13.20
2019-05-02T07:17:38.165Z,13.30
2019-05-02T07:20:42.533Z,13.50
2019-05-02T07:23:48.746Z,13.60
2019-05-02T07:26:56.949Z,13.70
2019-05-02T07:29:59.862Z,13.80
2019-05-02T07:33:04.459Z,13.90
2019-05-02T07:36:09.049Z,14.00
2019-05-02T07:39:13.542Z,14.10
2019-05-02T07:42:18.053Z,14.20
2019-05-02T07:45:22.597Z,14.30
2019-05-02T07:48:27.030Z,14.40
2019-05-02T07:51:31.771Z,14.40
2019-05-02T07:54:36.314Z,14.50
2019-05-02T07:57:40.903Z,14.60
2019-05-02T08:00:45.575Z,14.70
2019-05-02T08:03:50.172Z,14.80
2019-05-02T08:06:54.872Z,14.90
2019-05-02T08:09:59.521Z,15.00
2019-05-02T08:13:07.170Z,15.20
2019-05-02T08:16:11.712Z,15.30
2019-05-02T08:19:16.375Z,15.40
2019-05-02T08:22:20.917Z,15.40
2019-05-02T08:25:25.324Z,15.50
2019-05-02T08:28:46.990Z,15.60
2019-05-02T08:31:50.807Z,15.70
2019-05-02T08:34:55.378Z,15.80
2019-05-02T08:37:59.926Z,15.90
2019-05-02T08:41:04.815Z,16.00
2019-05-02T08:44:09.115Z,16.10
2019-05-02T08:47:19.159Z,16.30
2019-05-02T08:50:19.615Z,16.30
2019-05-02T08:53:24.025Z,16.40
2019-05-02T08:56:28.401Z,16.50
2019-05-02T08:59:32.834Z,16.60
2019-05-02T09:02:41.729Z,16.80
2019-05-02T09:05:46.019Z,16.90
2019-05-02T09:08:51.396Z,17.00
2019-05-02T09:12:08.715Z,17.00
2019-05-02T09:15:03.432Z,17.10
2019-05-02T09:18:07.989Z,17.20
2019-05-02T09:21:12.604Z,17.30
2019-05-02T09:24:21.092Z,17.30
2019-05-02T09:27:23.719Z,17.40
2019-05-02T09:30:28.301Z,17.50
2019-05-02T09:33:36.875Z,17.70
2019-05-02T09:36:38.844Z,17.80
2019-05-02T09:39:45.359Z,17.90
2019-05-02T09:42:53.571Z,18.00
2019-05-02T09:45:57.747Z,18.20
2019-05-02T09:49:09.425Z,18.30
2019-05-02T09:52:08.384Z,18.40
2019-05-02T09:55:14.913Z,18.40
2019-05-02T09:58:21.480Z,18.50
2019-05-02T10:01:35.636Z,18.60
2019-05-02T10:04:43.481Z,18.80
2019-05-02T10:07:49.152Z,19.00
2019-05-02T10:10:53.786Z,19.10
2019-05-02T10:13:58.447Z,19.20
2019-05-02T10:17:06.939Z,19.20
2019-05-02T10:20:09.388Z,19.20
2019-05-02T10:23:19.462Z,19.30
2019-05-02T10:26:24.166Z,19.40
2019-05-02T10:29:28.413Z,19.40
2019-05-02T10:32:32.526Z,19.50
2019-05-02T10:35:41.420Z,19.60
2019-05-02T10:38:49.023Z,19.80
2019-05-02T10:41:52.848Z,20.00
2019-05-02T10:44:57.438Z,20.10
2019-05-02T10:48:02.351Z,20.10
2019-05-02T10:51:34.451Z,20.20
2019-05-02T10:54:38.962Z,20.30
2019-05-02T10:57:43.394Z,20.30
2019-05-02T11:00:47.980Z,20.40
2019-05-02T11:03:53.284Z,20.40
2019-05-02T11:06:57.907Z,20.50
2019-05-02T11:10:06.531Z,20.70
2019-05-02T11:13:42.670Z,21.00
2019-05-02T11:17:13.985Z,21.20
2019-05-02T11:20:18.640Z,21.30
2019-05-02T11:23:23.091Z,21.50
2019-05-02T11:26:27.422Z,21.50
2019-05-02T11:29:32.297Z,21.60
2019-05-02T11:32:36.697Z,21.80
2019-05-02T11:35:48.766Z,21.90
2019-05-02T11:38:54.210Z,22.00
2019-05-02T11:41:53.344Z,22.10
2019-05-02T11:44:57.797Z,22.10
2019-05-02T11:48:09.354Z,22.10
2019-05-02T11:51:12.713Z,22.20
2019-05-02T11:54:14.356Z,22.20
2019-05-02T11:57:22.726Z,22.20
2019-05-02T12:00:25.130Z,22.10
2019-05-02T12:03:36.925Z,22.00
2019-05-02T12:06:42.247Z,22.00
2019-05-02T12:09:55.465Z,22.00
2019-05-02T12:12:53.320Z,22.00
2019-05-02T12:15:57.705Z,22.00
2019-05-02T12:19:09.565Z,22.00
2019-05-02T12:22:12.952Z,22.00
2019-05-02T12:25:15.242Z,21.90
2019-05-02T12:28:19.849Z,21.90
2019-05-02T12:31:29.041Z,22.00
2019-05-02T12:34:33.707Z,22.10
2019-05-02T12:37:38.214Z,22.20
2019-05-02T12:40:44.194Z,22.20
2019-05-02T12:43:48.749Z,22.30
2019-05-02T12:46:53.144Z,22.30
2019-05-02T12:49:57.556Z,22.20
2019-05-02T12:53:02.965Z,22.20
2019-05-02T12:56:07.616Z,22.20
2019-05-02T12:59:12.035Z,22.10
2019-05-02T13:02:25.334Z,22.00
2019-05-02T13:05:33.697Z,21.90
2019-05-02T13:08:52.533Z,21.80
2019-05-02T13:12:10.811Z,21.90
2019-05-02T13:15:15.808Z,22.00
2019-05-02T13:18:23.270Z,21.90
2019-05-02T13:21:40.090Z,21.80
2019-05-02T13:24:47.079Z,21.80
2019-05-02T13:27:49.419Z,21.80
2019-05-02T13:31:02.351Z,21.70
2019-05-02T13:34:14.825Z,21.60
2019-05-02T13:37:22.418Z,21.70
2019-05-02T13:40:37.062Z,21.70
2019-05-02T13:43:46.264Z,21.80
2019-05-02T13:46:53.591Z,21.70
2019-05-02T13:50:01.669Z,21.70
2019-05-02T13:53:08.391Z,21.60
2019-05-02T13:56:47.186Z,21.60
2019-05-02T13:59:52.514Z,21.60
2019-05-02T14:02:57.236Z,21.60
2019-05-02T14:06:02.934Z,21.70
2019-05-02T14:09:27.920Z,21.70
2019-05-02T14:12:49.324Z,21.70
2019-05-02T14:15:55.237Z,21.70
2019-05-02T14:18:59.736Z,21.80
2019-05-02T14:22:04.735Z,21.90
2019-05-02T14:25:09.838Z,22.00
2019-05-02T14:28:14.426Z,22.10
2019-05-02T14:31:21.689Z,22.20
2019-05-02T14:34:45.286Z,22.30
2019-05-02T14:38:08.595Z,22.30
2019-05-02T14:41:15.067Z,22.30
2019-05-02T14:44:23.304Z,22.30
2019-05-02T14:47:26.407Z,22.30
2019-05-02T14:50:32.032Z,22.40
2019-05-02T14:53:36.681Z,22.40
2019-05-02T14:57:01.948Z,22.40
2019-05-02T15:00:08.552Z,22.40
2019-05-02T15:03:13.163Z,22.50
2019-05-02T15:06:17.767Z,22.40
2019-05-02T15:09:26.562Z,22.50
2019-05-02T15:12:28.712Z,22.40
2019-05-02T15:15:38.697Z,22.30
2019-05-02T15:18:39.598Z,22.30
2019-05-02T15:21:46.984Z,22.20
2019-05-02T15:24:56.411Z,22.10
2019-05-02T15:28:02.431Z,22.00
2019-05-02T15:31:11.833Z,21.90
2019-05-02T15:34:26.134Z,21.80
2019-05-02T15:37:32.219Z,21.70
2019-05-02T15:40:47.166Z,21.70
2019-05-02T15:43:44.538Z,21.60
2019-05-02T15:46:52.299Z,21.50
2019-05-02T15:49:56.349Z,21.50
2019-05-02T15:53:09.990Z,21.40
2019-05-02T15:56:19.722Z,21.30
2019-05-02T15:59:20.185Z,21.10
2019-05-02T16:02:26.757Z,21.00
2019-05-02T16:05:32.048Z,21.00
2019-05-02T16:08:38.110Z,20.90
2019-05-02T16:11:43.451Z,20.80
2019-05-02T16:14:48.035Z,20.70
2019-05-02T16:17:56.786Z,20.60
2019-05-02T16:21:07.619Z,20.60
2019-05-02T16:24:23.531Z,20.50
2019-05-02T16:27:46.873Z,20.40
2019-05-02T16:30:53.337Z,20.20
2019-05-02T16:33:57.803Z,20.20
2019-05-02T16:37:16.380Z,20.10
2019-05-02T16:40:22.040Z,20.00
2019-05-02T16:43:27.335Z,19.80
2019-05-02T16:46:32.300Z,19.70
2019-05-02T16:49:36.895Z,19.60
2019-05-02T16:52:45.536Z,19.50
2019-05-02T16:55:47.449Z,19.40
2019-05-02T16:58:52.234Z,19.30
2019-05-02T17:01:59.514Z,19.30
2019-05-02T17:05:08.230Z,19.20
2019-05-02T17:08:20.211Z,19.10
2019-05-02T17:11:35.852Z,19.00
2019-05-02T17:14:47.512Z,18.90
2019-05-02T17:17:47.793Z,18.80
2019-05-02T17:20:56.365Z,18.70
2019-05-02T17:23:58.364Z,18.60
2019-05-02T17:27:03.220Z,18.50
2019-05-02T17:30:08.124Z,18.40
2019-05-02T17:33:16.019Z,18.30
2019-05-02T17:36:23.380Z,18.20
2019-05-02T17:39:26.170Z,18.10
2019-05-02T17:42:32.373Z,18.00
2019-05-02T17:45:38.504Z,17.90
2019-05-02T17:48:47.717Z,17.80
2019-05-02T17:52:32.521Z,17.70
2019-05-02T17:55:40.523Z,17.60
2019-05-02T17:58:47.379Z,17.40
2019-05-02T18:01:52.435Z,17.30
2019-05-02T18:04:57.320Z,17.20
2019-05-02T18:08:05.936Z,17.10
2019-05-02T18:11:08.095Z,16.90
2019-05-02T18:14:19.513Z,16.80
2019-05-02T18:17:21.916Z,16.70
2019-05-02T18:20:26.755Z,16.60
2019-05-02T18:23:32.260Z,16.50
2019-05-02T18:26:36.913Z,16.40
2019-05-02T18:29:45.390Z,16.30
2019-05-02T18:32:47.918Z,16.20
2019-05-02T18:35:54.009Z,16.20
2019-05-02T18:39:00.515Z,16.10
2019-05-02T18:42:08.497Z,15.90
2019-05-02T18:45:18.295Z,15.90
2019-05-02T18:48:26.045Z,15.80
2019-05-02T18:51:32.103Z,15.70
2019-05-02T18:54:38.657Z,15.60
2019-05-02T18:57:43.214Z,15.50
2019-05-02T19:00:51.932Z,15.40
2019-05-02T19:03:56.293Z,15.30
2019-05-02T19:07:02.692Z,15.30
2019-05-02T19:10:07.482Z,15.10
2019-05-02T19:13:12.857Z,15.10
2019-05-02T19:16:19.331Z,15.00
2019-05-02T19:19:27.428Z,14.90
2019-05-02T19:22:32.063Z,14.90
2019-05-02T19:25:36.216Z,14.70
2019-05-02T19:29:13.213Z,14.60
2019-05-02T19:32:17.560Z,14.50
2019-05-02T19:35:21.896Z,14.50
2019-05-02T19:38:27.311Z,14.40
2019-05-02T19:41:32.342Z,14.30
2019-05-02T19:44:36.925Z,14.30
2019-05-02T19:47:42.141Z,14.20
2019-05-02T19:50:46.991Z,14.10
2019-05-02T19:53:59.197Z,14.10
2019-05-02T19:56:57.783Z,14.00
2019-05-02T20:00:06.380Z,13.90
2019-05-02T20:03:13.003Z,13.90
2019-05-02T20:06:15.100Z,13.80
2019-05-02T20:09:19.905Z,13.70
2019-05-02T20:12:24.838Z,13.70
2019-05-02T20:15:32.752Z,13.50
2019-05-02T20:18:42.521Z,13.50
2019-05-02T20:22:06.745Z,13.50
2019-05-02T20:25:12.509Z,13.40
2019-05-02T20:28:17.435Z,13.30
2019-05-02T20:31:22.357Z,13.30
2019-05-02T20:34:27.514Z,13.30
2019-05-02T20:37:32.535Z,13.30
2019-05-02T20:40:37.535Z,13.30
2019-05-02T20:43:44.784Z,13.30
2019-05-02T20:46:51.573Z,13.30
2019-05-02T20:49:56.194Z,13.30
2019-05-02T20:53:01.981Z,13.30
2019-05-02T20:56:06.434Z,13.30
2019-05-02T20:59:13.960Z,13.20
2019-05-02T21:02:18.362Z,13.20
2019-05-02T21:05:26.924Z,13.30
2019-05-02T21:08:48.688Z,13.20
2019-05-02T21:12:01.881Z,13.20
2019-05-02T21:15:06.963Z,13.10
2019-05-02T21:18:11.750Z,13.10
2019-05-02T21:21:17.204Z,13.10
2019-05-02T21:24:22.077Z,13.10
2019-05-02T21:27:26.711Z,13.00
2019-05-02T21:30:32.241Z,13.00
2019-05-02T21:33:42.508Z,12.90
2019-05-02T21:36:48.253Z,12.90
2019-05-02T21:39:52.718Z,12.90
2019-05-02T21:42:58.350Z,12.90
2019-05-02T21:46:02.759Z,12.80
2019-05-02T21:49:07.297Z,12.80
2019-05-02T21:52:33.679Z,12.80
2019-05-02T21:55:45.013Z,12.80
2019-05-02T21:59:09.289Z,12.70
2019-05-02T22:02:14.414Z,12.70
2019-05-02T22:05:18.802Z,12.70
2019-05-02T22:08:23.219Z,12.70
2019-05-02T22:11:27.651Z,12.60
2019-05-02T22:14:33.556Z,12.60
2019-05-02T22:17:37.992Z,12.60
2019-05-02T22:20:42.792Z,12.50
2019-05-02T22:23:51.920Z,12.50
2019-05-02T22:26:56.112Z,12.50
2019-05-02T22:30:02.117Z,12.50
2019-05-02T22:33:06.746Z,12.40
2019-05-02T22:36:12.362Z,12.40
2019-05-02T22:39:37.393Z,12.40
2019-05-02T22:42:41.801Z,12.40
2019-05-02T22:45:46.212Z,12.40
2019-05-02T22:48:51.831Z,12.30
2019-05-02T22:51:56.291Z,12.30
2019-05-02T22:55:02.864Z,12.30
2019-05-02T22:58:06.733Z,12.30
2019-05-02T23:01:11.095Z,12.20
2019-05-02T23:04:15.582Z,12.20
2019-05-02T23:07:22.056Z,12.20
2019-05-02T23:10:26.048Z,12.10
2019-05-02T23:13:31.883Z,12.10
2019-05-02T23:16:36.882Z,12.00
2019-05-02T23:19:42.347Z,12.00
2019-05-02T23:22:46.849Z,11.90
2019-05-02T23:26:05.330Z,11.90
2019-05-02T23:29:12.396Z,11.80
2019-05-02T23:32:16.676Z,11.80
2019-05-02T23:35:21.122Z,11.80
2019-05-02T23:38:25.544Z,11.70
2019-05-02T23:41:29.947Z,11.60
2019-05-02T23:44:34.300Z,11.70
2019-05-02T23:47:38.686Z,11.60
2019-05-02T23:50:43.381Z,11.50
2019-05-02T23:53:47.775Z,11.40
2019-05-02T23:56:52.108Z,11.40
2019-05-02T23:59:56.417Z,11.40
